Time;durP1;ratioP1;P1;durP2;ratioP2;P2;SDS_P1;SDS_P2;PMS_P1;PMS_P2;Temp;Humidity;BMP_temperature;BMP_pressure;BME280_temperature;BME280_humidity;BME280_pressure;Samples;Min_cycle;Max_cycle;Signal;HPM_P1;HPM_P2
2023/03/02 00:02:16;0.00;0.00;0.62;0.00;0.00;0.62;2.33;1.53;;;22.30;20.40;;;;;;2264683;61;20899;-66
2023/03/02 00:05:01;0.00;0.00;0.62;0.00;0.00;0.62;2.07;1.50;;;22.30;20.40;;;;;;2263526;61;20364;-65
2023/03/02 00:07:46;0.00;0.00;0.62;0.00;0.00;0.62;2.40;1.90;;;22.30;20.40;;;;;;2264595;61;20380;-66
2023/03/02 00:10:33;0.00;0.00;0.62;0.00;0.00;0.62;2.67;1.90;;;22.20;20.30;;;;;;2264200;61;20356;-67
2023/03/02 00:13:18;0.00;0.00;0.62;0.00;0.00;0.62;2.17;1.60;;;22.20;20.30;;;;;;2264067;61;20932;-64
2023/03/02 00:16:03;0.00;0.00;0.62;0.00;0.00;0.62;2.00;1.40;;;22.20;20.30;;;;;;2264558;61;20851;-66
2023/03/02 00:18:48;0.00;0.00;0.62;0.00;0.00;0.62;2.03;1.50;;;22.20;20.30;;;;;;2263477;61;20399;-66
2023/03/02 00:21:33;0.00;0.00;0.62;0.00;0.00;0.62;2.40;1.47;;;22.20;20.30;;;;;;2261156;61;20407;-66
2023/03/02 00:24:18;0.00;0.00;0.62;0.00;0.00;0.62;2.27;1.40;;;22.20;20.30;;;;;;2261293;61;20384;-67
2023/03/02 00:27:04;0.00;0.00;0.62;0.00;0.00;0.62;2.30;1.63;;;22.20;20.30;;;;;;2263731;61;20402;-66
2023/03/02 00:29:50;0.00;0.00;0.62;0.00;0.00;0.62;2.00;1.53;;;22.20;20.30;;;;;;2264356;61;20368;-64
2023/03/02 00:32:34;0.00;0.00;0.62;0.00;0.00;0.62;2.30;1.87;;;22.20;20.30;;;;;;2264506;61;20360;-66
2023/03/02 00:35:19;0.00;0.00;0.62;0.00;0.00;0.62;2.60;1.43;;;22.20;20.30;;;;;;2264340;61;20364;-64
2023/03/02 00:38:06;0.00;0.00;0.62;0.00;0.00;0.62;2.30;1.50;;;22.20;20.30;;;;;;2261312;61;20407;-64
2023/03/02 00:40:50;0.00;0.00;0.62;0.00;0.00;0.62;2.10;1.50;;;22.20;20.30;;;;;;2263749;61;20773;-66
2023/03/02 00:43:37;0.00;0.00;0.62;0.00;0.00;0.62;2.40;1.57;;;22.10;20.20;;;;;;2261409;61;20847;-67
2023/03/02 00:46:24;0.00;0.00;0.62;0.00;0.00;0.62;1.80;1.30;;;22.10;20.20;;;;;;2264773;61;20368;-66
2023/03/02 00:49:09;0.00;0.00;0.62;0.00;0.00;0.62;2.30;1.57;;;22.10;20.20;;;;;;2262953;61;20363;-67
2023/03/02 00:51:54;0.00;0.00;0.62;0.00;0.00;0.62;2.30;1.70;;;22.10;20.30;;;;;;2264576;61;20415;-65
2023/03/02 00:54:39;0.00;0.00;0.62;0.00;0.00;0.62;1.60;1.40;;;22.10;20.20;;;;;;2258686;61;20387;-66
2023/03/02 00:57:24;0.00;0.00;0.62;0.00;0.00;0.62;2.13;1.43;;;22.10;20.20;;;;;;2263745;61;20387;-67
2023/03/02 01:00:12;0.00;0.00;0.62;0.00;0.00;0.62;2.00;1.60;;;22.10;20.20;;;;;;2264221;61;20364;-66
2023/03/02 01:02:57;0.00;0.00;0.62;0.00;0.00;0.62;2.20;1.40;;;22.10;20.20;;;;;;2260908;61;20396;-69
2023/03/02 01:05:43;0.00;0.00;0.62;0.00;0.00;0.62;2.80;1.80;;;22.10;20.20;;;;;;2264516;61;20771;-65
2023/03/02 01:08:28;0.00;0.00;0.62;0.00;0.00;0.62;2.13;1.50;;;22.10;20.20;;;;;;2261410;61;20487;-66
2023/03/02 01:11:16;0.00;0.00;0.62;0.00;0.00;0.62;1.80;1.33;;;22.00;20.20;;;;;;2260353;61;20359;-67
2023/03/02 01:14:01;0.00;0.00;0.62;0.00;0.00;0.62;2.30;1.40;;;22.00;20.20;;;;;;2264449;61;20383;-66
2023/03/02 01:16:48;0.00;0.00;0.62;0.00;0.00;0.62;1.80;1.20;;;22.00;20.20;;;;;;2264619;61;20410;-66
2023/03/02 01:19:33;0.00;0.00;0.62;0.00;0.00;0.62;2.47;1.50;;;22.00;20.20;;;;;;2263457;61;20403;-68
2023/03/02 01:22:18;0.00;0.00;0.62;0.00;0.00;0.62;2.40;1.80;;;22.00;20.20;;;;;;2264337;61;20368;-66
2023/03/02 01:25:04;0.00;0.00;0.62;0.00;0.00;0.62;2.17;1.40;;;22.00;20.20;;;;;;2264117;61;20884;-65
2023/03/02 01:27:49;0.00;0.00;0.62;0.00;0.00;0.62;2.40;1.50;;;22.00;20.20;;;;;;2264513;61;20415;-66
2023/03/02 01:30:33;0.00;0.00;0.62;0.00;0.00;0.62;1.87;1.47;;;22.00;20.20;;;;;;2264244;61;20427;-66
2023/03/02 01:33:20;0.00;0.00;0.62;0.00;0.00;0.62;1.60;1.20;;;22.00;20.20;;;;;;2263299;61;20421;-66
2023/03/02 01:36:06;0.00;0.00;0.62;0.00;0.00;0.62;1.90;1.60;;;22.00;20.20;;;;;;2264654;61;20876;-66
2023/03/02 01:38:52;0.00;0.00;0.62;0.00;0.00;0.62;1.80;1.20;;;21.90;20.10;;;;;;2260874;61;20438;-66
2023/03/02 01:41:37;0.00;0.00;0.62;0.00;0.00;0.62;1.90;1.50;;;21.90;20.10;;;;;;2260581;61;20792;-66
2023/03/02 01:44:45;0.00;0.00;0.62;0.00;0.00;0.62;2.37;1.53;;;21.90;20.10;;;;;;2264130;61;20418;-66
2023/03/02 01:47:35;0.00;0.00;0.62;0.00;0.00;0.62;2.27;1.40;;;21.90;20.10;;;;;;2257842;61;20430;-66
2023/03/02 01:50:35;0.00;0.00;0.62;0.00;0.00;0.62;2.27;1.80;;;21.90;20.10;;;;;;2261069;61;20855;-68
2023/03/02 01:53:21;0.00;0.00;0.62;0.00;0.00;0.62;2.27;1.70;;;21.90;20.10;;;;;;2264504;61;20380;-65
2023/03/02 01:56:06;0.00;0.00;0.62;0.00;0.00;0.62;2.10;1.60;;;21.90;20.10;;;;;;2257679;61;20457;-66
2023/03/02 01:59:01;0.00;0.00;0.62;0.00;0.00;0.62;2.00;1.40;;;21.90;20.10;;;;;;2264045;61;20383;-67
2023/03/02 02:01:51;0.00;0.00;0.62;0.00;0.00;0.62;2.07;1.50;;;21.90;20.10;;;;;;2260891;61;20710;-66
2023/03/02 02:04:39;0.00;0.00;0.62;0.00;0.00;0.62;1.80;1.40;;;21.90;20.10;;;;;;2263659;61;20380;-67
2023/03/02 02:07:26;0.00;0.00;0.62;0.00;0.00;0.62;2.10;1.60;;;21.80;20.00;;;;;;2261342;61;20780;-66
2023/03/02 02:10:13;0.00;0.00;0.62;0.00;0.00;0.62;1.90;1.43;;;21.80;20.00;;;;;;2260166;61;20369;-67
2023/03/02 02:12:58;0.00;0.00;0.62;0.00;0.00;0.62;1.60;1.07;;;21.80;20.00;;;;;;2263878;61;20427;-67
2023/03/02 02:15:43;0.00;0.00;0.62;0.00;0.00;0.62;1.90;1.40;;;21.80;20.10;;;;;;2263829;61;20880;-66
2023/03/02 02:18:28;0.00;0.00;0.62;0.00;0.00;0.62;1.90;1.37;;;21.80;20.00;;;;;;2263821;61;20443;-67
2023/03/02 02:21:14;0.00;0.00;0.62;0.00;0.00;0.62;2.40;1.40;;;21.80;20.00;;;;;;2263613;61;20367;-67
2023/03/02 02:24:10;0.00;0.00;0.62;0.00;0.00;0.62;2.03;1.60;;;21.80;20.10;;;;;;2264599;61;21012;-67
2023/03/02 02:26:57;0.00;0.00;0.62;0.00;0.00;0.62;2.77;1.50;;;21.80;20.10;;;;;;2265349;61;20460;-67
2023/03/02 02:29:48;0.00;0.00;0.62;0.00;0.00;0.62;2.10;1.30;;;21.80;20.10;;;;;;2261635;61;20760;-67
2023/03/02 02:32:36;0.00;0.00;0.62;0.00;0.00;0.62;2.20;1.40;;;21.80;20.10;;;;;;2264577;61;20368;-66
2023/03/02 02:35:26;0.00;0.00;0.62;0.00;0.00;0.62;1.93;1.30;;;21.70;20.10;;;;;;2264965;61;20364;-65
2023/03/02 02:38:15;0.00;0.00;0.62;0.00;0.00;0.62;2.60;1.60;;;21.80;20.10;;;;;;2261725;61;20804;-66
2023/03/02 02:41:03;0.00;0.00;0.62;0.00;0.00;0.62;2.87;1.70;;;21.70;20.00;;;;;;2264017;61;20796;-66
2023/03/02 02:43:54;0.00;0.00;0.62;0.00;0.00;0.62;1.93;1.50;;;21.70;20.10;;;;;;2261890;61;20407;-67
2023/03/02 02:46:39;0.00;0.00;0.62;0.00;0.00;0.62;1.77;1.33;;;21.70;20.10;;;;;;2264149;61;20372;-68
2023/03/02 02:49:31;0.00;0.00;0.62;0.00;0.00;0.62;1.93;1.40;;;21.70;20.10;;;;;;2264846;61;20414;-66
2023/03/02 02:52:18;0.00;0.00;0.62;0.00;0.00;0.62;2.10;1.67;;;21.70;20.10;;;;;;2264828;61;20364;-67
2023/03/02 02:55:18;0.00;0.00;0.62;0.00;0.00;0.62;2.03;1.40;;;21.70;20.10;;;;;;2264452;61;20380;-67
2023/03/02 02:58:14;0.00;0.00;0.62;0.00;0.00;0.62;2.00;1.50;;;21.70;20.10;;;;;;2261775;61;20485;-68
2023/03/02 03:01:01;0.00;0.00;0.62;0.00;0.00;0.62;2.40;1.80;;;21.70;20.10;;;;;;2264373;61;20400;-65
2023/03/02 03:03:52;0.00;0.00;0.62;0.00;0.00;0.62;2.00;1.50;;;21.70;20.10;;;;;;2264455;61;20519;-66
2023/03/02 03:06:49;0.00;0.00;0.62;0.00;0.00;0.62;2.33;1.43;;;21.60;20.00;;;;;;2261829;61;20448;-65
2023/03/02 03:09:34;0.00;0.00;0.62;0.00;0.00;0.62;2.03;1.47;;;21.70;20.10;;;;;;2263589;61;20364;-65
2023/03/02 03:12:23;0.00;0.00;0.62;0.00;0.00;0.62;1.80;1.20;;;21.60;20.10;;;;;;2261481;61;20363;-66
2023/03/02 03:15:10;0.00;0.00;0.62;0.00;0.00;0.62;2.20;1.60;;;21.60;20.10;;;;;;2264712;61;20375;-68
2023/03/02 03:17:57;0.00;0.00;0.62;0.00;0.00;0.62;1.93;1.50;;;21.60;20.10;;;;;;2260995;61;20860;-65
2023/03/02 03:20:44;0.00;0.00;0.62;0.00;0.00;0.62;2.07;1.40;;;21.60;20.10;;;;;;2261372;61;20399;-67
2023/03/02 03:23:29;0.00;0.00;0.62;0.00;0.00;0.62;2.53;1.90;;;21.60;20.10;;;;;;2261152;61;20416;-66
2023/03/02 03:26:14;0.00;0.00;0.62;0.00;0.00;0.62;2.27;1.73;;;21.60;20.10;;;;;;2261450;61;20356;-66
2023/03/02 03:29:00;0.00;0.00;0.62;0.00;0.00;0.62;1.97;1.40;;;21.60;20.10;;;;;;2264499;61;20943;-66
2023/03/02 03:31:27;0.00;0.00;0.62;0.00;0.00;0.62;2.00;1.60;;;21.60;20.10;;;;;;2264120;61;20361;-67
2023/03/02 03:34:14;0.00;0.00;0.62;0.00;0.00;0.62;2.07;1.67;;;21.60;20.10;;;;;;2264343;61;20380;-66
2023/03/02 03:37:00;0.00;0.00;0.62;0.00;0.00;0.62;1.87;1.47;;;21.60;20.10;;;;;;2261625;61;20356;-66
2023/03/02 03:39:47;0.00;0.00;0.62;0.00;0.00;0.62;1.70;1.47;;;21.60;20.10;;;;;;2263206;61;20411;-66
2023/03/02 03:42:36;0.00;0.00;0.62;0.00;0.00;0.62;2.27;1.60;;;21.50;20.00;;;;;;2264201;61;20938;-66
2023/03/02 03:45:21;0.00;0.00;0.62;0.00;0.00;0.62;2.23;1.60;;;21.60;20.10;;;;;;2260890;61;20759;-66
2023/03/02 03:48:06;0.00;0.00;0.62;0.00;0.00;0.62;2.03;1.30;;;21.60;20.10;;;;;;2261241;61;20376;-66
2023/03/02 03:50:53;0.00;0.00;0.62;0.00;0.00;0.62;2.03;1.40;;;21.50;20.00;;;;;;2261418;61;20429;-66
2023/03/02 03:53:38;0.00;0.00;0.62;0.00;0.00;0.62;2.20;1.30;;;21.60;20.10;;;;;;2263841;61;20387;-66
2023/03/02 03:56:24;0.00;0.00;0.62;0.00;0.00;0.62;1.57;1.27;;;21.50;20.00;;;;;;2261560;61;20947;-67
2023/03/02 03:59:13;0.00;0.00;0.62;0.00;0.00;0.62;1.80;1.27;;;21.50;20.00;;;;;;2264371;61;21024;-67
2023/03/02 04:02:03;0.00;0.00;0.62;0.00;0.00;0.62;2.17;1.60;;;21.50;20.10;;;;;;2260714;61;20423;-66
2023/03/02 04:04:54;0.00;0.00;0.62;0.00;0.00;0.62;2.10;1.63;;;21.50;20.10;;;;;;2261311;61;20438;-66
2023/03/02 04:07:40;0.00;0.00;0.62;0.00;0.00;0.62;2.57;1.70;;;21.50;20.10;;;;;;2264619;61;20391;-66
2023/03/02 04:10:26;0.00;0.00;0.62;0.00;0.00;0.62;2.60;1.80;;;21.50;20.10;;;;;;2261156;61;20787;-66
2023/03/02 04:13:11;0.00;0.00;0.62;0.00;0.00;0.62;1.93;1.37;;;21.50;20.10;;;;;;2261382;61;20780;-66
2023/03/02 04:15:57;0.00;0.00;0.62;0.00;0.00;0.62;1.70;1.30;;;21.50;20.10;;;;;;2263502;61;20434;-70
2023/03/02 04:18:42;0.00;0.00;0.62;0.00;0.00;0.62;2.47;1.70;;;21.40;20.00;;;;;;2261524;61;20451;-68
2023/03/02 04:21:27;0.00;0.00;0.62;0.00;0.00;0.62;2.10;1.70;;;21.40;20.00;;;;;;2264678;61;20372;-67
2023/03/02 04:24:16;0.00;0.00;0.62;0.00;0.00;0.62;2.00;1.63;;;21.40;20.00;;;;;;2260734;61;20388;-67
2023/03/02 04:27:02;0.00;0.00;0.62;0.00;0.00;0.62;2.20;1.70;;;21.40;20.00;;;;;;2258672;61;20429;-68
2023/03/02 04:29:48;0.00;0.00;0.62;0.00;0.00;0.62;2.47;1.50;;;21.40;20.00;;;;;;2263557;61;20549;-67
2023/03/02 04:32:33;0.00;0.00;0.62;0.00;0.00;0.62;1.80;1.43;;;21.40;20.00;;;;;;2264536;61;20364;-70
2023/03/02 04:35:18;0.00;0.00;0.62;0.00;0.00;0.62;2.20;1.50;;;21.40;20.10;;;;;;2264128;61;20414;-66
2023/03/02 04:38:03;0.00;0.00;0.62;0.00;0.00;0.62;2.80;1.60;;;21.40;20.00;;;;;;2263507;61;20391;-67
2023/03/02 04:40:50;0.00;0.00;0.62;0.00;0.00;0.62;2.37;1.70;;;21.40;20.10;;;;;;2264178;61;20364;-65
2023/03/02 04:43:34;0.00;0.00;0.62;0.00;0.00;0.62;2.60;1.70;;;21.40;20.10;;;;;;2264494;61;20384;-67
2023/03/02 04:46:22;0.00;0.00;0.62;0.00;0.00;0.62;2.10;1.60;;;21.40;20.10;;;;;;2263797;61;20444;-66
2023/03/02 04:49:08;0.00;0.00;0.62;0.00;0.00;0.62;2.10;1.57;;;21.30;20.00;;;;;;2264291;61;20414;-66
2023/03/02 04:51:52;0.00;0.00;0.62;0.00;0.00;0.62;2.40;1.60;;;21.40;20.60;;;;;;2264177;61;20414;-67
2023/03/02 04:54:37;0.00;0.00;0.62;0.00;0.00;0.62;2.77;1.70;;;21.30;20.00;;;;;;2264353;61;20391;-69
2023/03/02 04:57:23;0.00;0.00;0.62;0.00;0.00;0.62;2.13;1.57;;;21.30;20.00;;;;;;2264688;61;20384;-66
2023/03/02 05:00:11;0.00;0.00;0.62;0.00;0.00;0.62;2.20;1.70;;;21.30;20.00;;;;;;2263333;61;20892;-65
2023/03/02 05:02:57;0.00;0.00;0.62;0.00;0.00;0.62;2.30;1.40;;;21.30;20.00;;;;;;2264547;61;20391;-65
2023/03/02 05:05:41;0.00;0.00;0.62;0.00;0.00;0.62;2.43;1.47;;;21.30;20.00;;;;;;2264297;61;20372;-65
2023/03/02 05:08:26;0.00;0.00;0.62;0.00;0.00;0.62;2.00;1.37;;;21.30;20.00;;;;;;2264029;61;20351;-65
2023/03/02 05:11:20;0.00;0.00;0.62;0.00;0.00;0.62;1.90;1.50;;;21.30;20.00;;;;;;2264481;61;20456;-68
2023/03/02 05:14:11;0.00;0.00;0.62;0.00;0.00;0.62;2.37;1.60;;;21.30;20.00;;;;;;2264160;61;20452;-64
2023/03/02 05:16:56;0.00;0.00;0.62;0.00;0.00;0.62;2.53;1.67;;;21.30;20.00;;;;;;2264132;61;20414;-65
2023/03/02 05:19:40;0.00;0.00;0.62;0.00;0.00;0.62;2.07;1.57;;;21.30;20.10;;;;;;2264302;61;20403;-65
2023/03/02 05:22:28;0.00;0.00;0.62;0.00;0.00;0.62;2.37;1.60;;;21.30;20.10;;;;;;2263766;61;20915;-66
2023/03/02 05:25:13;0.00;0.00;0.62;0.00;0.00;0.62;2.13;1.47;;;21.30;20.10;;;;;;2264475;61;20364;-66
2023/03/02 05:27:59;0.00;0.00;0.62;0.00;0.00;0.62;2.07;1.47;;;21.30;20.00;;;;;;2264402;61;20352;-66
2023/03/02 05:30:46;0.00;0.00;0.62;0.00;0.00;0.62;2.30;1.60;;;21.20;20.00;;;;;;2263576;61;20427;-65
2023/03/02 05:33:31;0.00;0.00;0.62;0.00;0.00;0.62;2.27;1.60;;;21.20;20.00;;;;;;2264189;61;20380;-66
2023/03/02 05:36:16;0.00;0.00;0.62;0.00;0.00;0.62;1.80;1.40;;;21.20;20.00;;;;;;2264323;61;20440;-66
2023/03/02 05:39:01;0.00;0.00;0.62;0.00;0.00;0.62;2.33;1.70;;;21.20;20.00;;;;;;2263748;61;20391;-66
2023/03/02 05:41:46;0.00;0.00;0.62;0.00;0.00;0.62;2.27;1.63;;;21.20;20.00;;;;;;2264647;61;20396;-65
2023/03/02 05:44:30;0.00;0.00;0.62;0.00;0.00;0.62;1.90;1.47;;;21.20;20.00;;;;;;2263826;61;20906;-66
2023/03/02 05:47:16;0.00;0.00;0.62;0.00;0.00;0.62;2.53;1.57;;;21.20;20.00;;;;;;2264589;61;20444;-66
2023/03/02 05:50:01;0.00;0.00;0.62;0.00;0.00;0.62;1.70;1.17;;;21.20;20.00;;;;;;2264012;61;20509;-66
2023/03/02 05:52:46;0.00;0.00;0.62;0.00;0.00;0.62;1.70;1.30;;;21.20;20.00;;;;;;2263850;61;20884;-66
2023/03/02 05:55:35;0.00;0.00;0.62;0.00;0.00;0.62;2.30;1.63;;;21.20;20.00;;;;;;2264742;61;20498;-65
2023/03/02 05:58:20;0.00;0.00;0.62;0.00;0.00;0.62;2.10;1.50;;;21.20;20.00;;;;;;2264947;61;20379;-65
2023/03/02 06:01:09;0.00;0.00;0.62;0.00;0.00;0.62;1.97;1.37;;;21.20;20.00;;;;;;2261320;61;20900;-66
2023/03/02 06:03:55;0.00;0.00;0.62;0.00;0.00;0.62;1.83;1.53;;;21.10;20.00;;;;;;2265243;61;20435;-66
2023/03/02 06:06:42;0.00;0.00;0.62;0.00;0.00;0.62;2.00;1.50;;;21.10;20.00;;;;;;2264412;61;20390;-66
2023/03/02 06:09:26;0.00;0.00;0.62;0.00;0.00;0.62;2.30;1.70;;;21.10;20.00;;;;;;2264933;61;20408;-66
2023/03/02 06:12:11;0.00;0.00;0.62;0.00;0.00;0.62;1.90;1.30;;;21.10;20.00;;;;;;2265312;61;20380;-66
2023/03/02 06:14:56;0.00;0.00;0.62;0.00;0.00;0.62;1.80;1.40;;;21.10;20.00;;;;;;2264508;61;20368;-68
2023/03/02 06:17:40;0.00;0.00;0.62;0.00;0.00;0.62;2.00;1.30;;;21.10;20.00;;;;;;2265007;61;20446;-67
2023/03/02 06:20:26;0.00;0.00;0.62;0.00;0.00;0.62;1.73;1.30;;;21.10;20.00;;;;;;2264774;61;20792;-66
2023/03/02 06:23:11;0.00;0.00;0.62;0.00;0.00;0.62;2.00;1.73;;;21.10;20.10;;;;;;2264607;61;20387;-65
2023/03/02 06:25:57;0.00;0.00;0.62;0.00;0.00;0.62;1.70;1.17;;;21.10;20.00;;;;;;2265343;61;20407;-66
2023/03/02 06:28:41;0.00;0.00;0.62;0.00;0.00;0.62;2.13;1.30;;;21.10;20.00;;;;;;2264475;61;20375;-66
2023/03/02 06:31:26;0.00;0.00;0.62;0.00;0.00;0.62;1.90;1.40;;;21.10;20.00;;;;;;2265287;61;20372;-65
2023/03/02 06:34:10;0.00;0.00;0.62;0.00;0.00;0.62;2.17;1.57;;;21.10;20.10;;;;;;2265182;61;20375;-65
2023/03/02 06:36:56;0.00;0.00;0.62;0.00;0.00;0.62;2.20;1.43;;;21.10;20.10;;;;;;2264522;61;20383;-66
2023/03/02 06:39:41;0.00;0.00;0.62;0.00;0.00;0.62;1.90;1.40;;;21.00;20.00;;;;;;2264742;61;20391;-66
2023/03/02 06:42:27;0.00;0.00;0.62;0.00;0.00;0.62;1.97;1.30;;;21.00;20.00;;;;;;2265153;61;20418;-67
2023/03/02 06:45:12;0.00;0.00;0.62;0.00;0.00;0.62;2.07;1.53;;;21.00;20.00;;;;;;2264442;61;20471;-65
2023/03/02 06:47:57;0.00;0.00;0.62;0.00;0.00;0.62;1.80;1.30;;;21.00;20.00;;;;;;2261918;61;20360;-67
2023/03/02 06:50:41;0.00;0.00;0.62;0.00;0.00;0.62;1.97;1.57;;;21.00;20.00;;;;;;2261180;61;20452;-65
2023/03/02 06:53:28;0.00;0.00;0.62;0.00;0.00;0.62;1.67;1.17;;;21.00;20.00;;;;;;2265099;61;20403;-70
2023/03/02 06:56:13;0.00;0.00;0.62;0.00;0.00;0.62;2.10;1.67;;;21.00;20.00;;;;;;2265424;61;20410;-66
2023/03/02 06:58:57;0.00;0.00;0.62;0.00;0.00;0.62;1.73;1.20;;;21.00;20.10;;;;;;2263673;61;20380;-68
2023/03/02 07:01:42;0.00;0.00;0.62;0.00;0.00;0.62;1.73;1.30;;;21.00;20.00;;;;;;2264995;61;20368;-68
2023/03/02 07:04:27;0.00;0.00;0.62;0.00;0.00;0.62;2.00;1.50;;;21.00;20.00;;;;;;2265098;61;20449;-65
2023/03/02 07:07:12;0.00;0.00;0.62;0.00;0.00;0.62;1.63;1.20;;;21.00;20.10;;;;;;2261040;61;20407;-66
2023/03/02 07:09:58;0.00;0.00;0.62;0.00;0.00;0.62;1.50;1.13;;;21.00;20.00;;;;;;2264844;61;20407;-71
2023/03/02 07:12:43;0.00;0.00;0.62;0.00;0.00;0.62;1.83;1.07;;;21.00;20.10;;;;;;2264765;61;20452;-66
2023/03/02 07:15:28;0.00;0.00;0.62;0.00;0.00;0.62;2.30;1.47;;;21.00;20.00;;;;;;2265147;61;20380;-66
2023/03/02 07:18:13;0.00;0.00;0.62;0.00;0.00;0.62;1.93;1.30;;;21.00;20.10;;;;;;2261721;61;20920;-67
2023/03/02 07:20:58;0.00;0.00;0.62;0.00;0.00;0.62;1.83;1.30;;;21.00;20.10;;;;;;2263951;61;20403;-66
2023/03/02 07:23:43;0.00;0.00;0.62;0.00;0.00;0.62;1.63;1.10;;;21.00;20.10;;;;;;2264850;61;20376;-67
2023/03/02 07:26:29;0.00;0.00;0.62;0.00;0.00;0.62;1.70;1.10;;;21.00;20.10;;;;;;2265119;61;20417;-66
2023/03/02 07:29:13;0.00;0.00;0.62;0.00;0.00;0.62;2.23;1.47;;;20.90;20.00;;;;;;2263860;61;20410;-66
2023/03/02 07:31:58;0.00;0.00;0.62;0.00;0.00;0.62;1.50;1.10;;;20.90;20.00;;;;;;2263644;61;20927;-66
2023/03/02 07:34:43;0.00;0.00;0.62;0.00;0.00;0.62;1.90;1.20;;;20.90;20.00;;;;;;2261267;61;20380;-66
2023/03/02 07:37:29;0.00;0.00;0.62;0.00;0.00;0.62;1.80;1.40;;;20.90;20.00;;;;;;2264645;61;20356;-66
2023/03/02 07:40:14;0.00;0.00;0.62;0.00;0.00;0.62;2.50;1.47;;;20.90;20.00;;;;;;2264333;61;20388;-66
2023/03/02 07:43:00;0.00;0.00;0.62;0.00;0.00;0.62;1.70;1.40;;;20.90;20.00;;;;;;2264105;61;20383;-66
2023/03/02 07:45:45;0.00;0.00;0.62;0.00;0.00;0.62;2.00;1.30;;;20.90;20.00;;;;;;2264962;61;20368;-66
2023/03/02 07:48:31;0.00;0.00;0.62;0.00;0.00;0.62;2.10;1.60;;;20.90;20.00;;;;;;2264856;61;20356;-68
2023/03/02 07:51:15;0.00;0.00;0.62;0.00;0.00;0.62;1.60;1.20;;;20.90;20.00;;;;;;2264288;61;20360;-71
2023/03/02 07:54:01;0.00;0.00;0.62;0.00;0.00;0.62;1.53;1.03;;;20.90;20.00;;;;;;2264985;61;20787;-66
2023/03/02 07:56:46;0.00;0.00;0.62;0.00;0.00;0.62;1.90;1.30;;;20.90;20.00;;;;;;2261615;61;20399;-66
2023/03/02 07:59:33;0.00;0.00;0.62;0.00;0.00;0.62;1.97;1.20;;;20.90;20.00;;;;;;2264104;61;20805;-66
2023/03/02 08:02:19;0.00;0.00;0.62;0.00;0.00;0.62;2.60;1.60;;;20.90;20.10;;;;;;2265040;61;20498;-67
2023/03/02 08:05:05;0.00;0.00;0.62;0.00;0.00;0.62;1.80;1.20;;;20.90;20.10;;;;;;2260792;61;20415;-67
2023/03/02 08:07:50;0.00;0.00;0.62;0.00;0.00;0.62;2.00;1.30;;;20.90;20.10;;;;;;2264608;61;20875;-66
2023/03/02 08:10:35;0.00;0.00;0.62;0.00;0.00;0.62;2.00;1.40;;;20.90;20.10;;;;;;2264442;61;20403;-66
2023/03/02 08:13:20;0.00;0.00;0.62;0.00;0.00;0.62;1.93;1.20;;;20.90;20.00;;;;;;2263963;61;20399;-67
2023/03/02 08:16:09;0.00;0.00;0.62;0.00;0.00;0.62;1.80;1.27;;;20.90;20.10;;;;;;2260633;61;20495;-67
2023/03/02 08:18:54;0.00;0.00;0.62;0.00;0.00;0.62;2.00;1.33;;;20.90;20.10;;;;;;2260293;61;20385;-67
2023/03/02 08:21:39;0.00;0.00;0.62;0.00;0.00;0.62;1.83;1.40;;;20.90;20.00;;;;;;2260227;61;20837;-66
2023/03/02 08:24:24;0.00;0.00;0.62;0.00;0.00;0.62;1.80;1.37;;;20.90;20.10;;;;;;2260690;61;20427;-68
2023/03/02 08:27:12;0.00;0.00;0.62;0.00;0.00;0.62;2.23;1.40;;;20.90;20.10;;;;;;2260083;61;20445;-66
2023/03/02 08:29:57;0.00;0.00;0.62;0.00;0.00;0.62;1.80;1.30;;;20.90;20.10;;;;;;2260489;61;20369;-66
2023/03/02 08:32:43;0.00;0.00;0.62;0.00;0.00;0.62;2.10;1.23;;;20.90;20.10;;;;;;2260894;61;20365;-66
2023/03/02 08:35:27;0.00;0.00;0.62;0.00;0.00;0.62;2.53;1.70;;;20.90;20.10;;;;;;2259840;61;20368;-66
2023/03/02 08:38:12;0.00;0.00;0.62;0.00;0.00;0.62;1.70;1.23;;;20.90;20.10;;;;;;2260922;61;20411;-67
2023/03/02 08:40:57;0.00;0.00;0.62;0.00;0.00;0.62;2.13;1.60;;;20.90;20.10;;;;;;2260136;61;20428;-66
2023/03/02 08:43:42;0.00;0.00;0.62;0.00;0.00;0.62;1.67;1.23;;;20.90;20.10;;;;;;2259757;61;20443;-70
2023/03/02 08:46:27;0.00;0.00;0.62;0.00;0.00;0.62;1.50;1.00;;;20.90;20.10;;;;;;2260373;61;20416;-66
2023/03/02 08:49:13;0.00;0.00;0.62;0.00;0.00;0.62;1.97;1.27;;;20.90;20.10;;;;;;2260231;61;20531;-66
2023/03/02 08:51:59;0.00;0.00;0.62;0.00;0.00;0.62;1.87;1.23;;;20.90;20.10;;;;;;2257807;61;20419;-67
2023/03/02 08:54:44;0.00;0.00;0.62;0.00;0.00;0.62;2.00;1.30;;;20.90;20.10;;;;;;2260566;61;20381;-66
2023/03/02 08:57:29;0.00;0.00;0.62;0.00;0.00;0.62;1.83;1.20;;;20.90;20.10;;;;;;2259955;61;20376;-70
2023/03/02 09:00:16;0.00;0.00;0.62;0.00;0.00;0.62;2.13;1.37;;;20.90;20.10;;;;;;2260613;61;20361;-66
2023/03/02 09:03:01;0.00;0.00;0.62;0.00;0.00;0.62;1.87;1.33;;;20.90;20.10;;;;;;2260955;61;20432;-66
2023/03/02 09:05:47;0.00;0.00;0.62;0.00;0.00;0.62;1.50;1.00;;;20.90;20.10;;;;;;2260194;61;20838;-66
2023/03/02 09:08:32;0.00;0.00;0.62;0.00;0.00;0.62;2.17;1.30;;;20.90;20.10;;;;;;2260857;61;20412;-66
2023/03/02 09:11:17;0.00;0.00;0.62;0.00;0.00;0.62;2.00;1.37;;;20.90;20.10;;;;;;2260411;61;20432;-66
2023/03/02 09:14:01;0.00;0.00;0.62;0.00;0.00;0.62;2.00;1.30;;;20.90;20.10;;;;;;2261574;61;20873;-66
2023/03/02 09:16:46;0.00;0.00;0.62;0.00;0.00;0.62;1.90;1.30;;;20.90;20.10;;;;;;2264988;61;20784;-66
2023/03/02 09:19:36;0.00;0.00;0.62;0.00;0.00;0.62;2.13;1.27;;;20.90;20.10;;;;;;2263931;61;20384;-66
2023/03/02 09:22:22;0.00;0.00;0.62;0.00;0.00;0.62;1.67;1.03;;;20.90;20.10;;;;;;2264918;61;20364;-67
2023/03/02 09:25:08;0.00;0.00;0.62;0.00;0.00;0.62;2.03;1.47;;;20.90;20.10;;;;;;2264634;61;20364;-66
2023/03/02 09:27:53;0.00;0.00;0.62;0.00;0.00;0.62;1.70;1.20;;;20.90;20.10;;;;;;2264458;61;20368;-66
2023/03/02 09:30:37;0.00;0.00;0.62;0.00;0.00;0.62;1.70;1.07;;;20.90;20.10;;;;;;2264706;61;20458;-67
2023/03/02 09:33:22;0.00;0.00;0.62;0.00;0.00;0.62;1.60;1.10;;;20.90;20.10;;;;;;2264490;61;20384;-68
2023/03/02 09:36:13;0.00;0.00;0.62;0.00;0.00;0.62;1.63;1.10;;;20.90;20.10;;;;;;2264893;61;20368;-66
2023/03/02 09:38:59;0.00;0.00;0.62;0.00;0.00;0.62;1.93;1.30;;;20.90;20.10;;;;;;2264669;61;20451;-66
2023/03/02 09:42:38;0.00;0.00;0.62;0.00;0.00;0.62;1.90;1.50;;;20.90;20.10;;;;;;2264468;61;20368;-66
2023/03/02 09:45:38;0.00;0.00;0.62;0.00;0.00;0.62;2.57;1.93;;;20.80;20.00;;;;;;2251571;61;20370;-66
2023/03/02 09:48:36;0.00;0.00;0.62;0.00;0.00;0.62;2.60;2.10;;;20.90;20.20;;;;;;2251051;61;21110;-66
2023/03/02 09:51:32;0.00;0.00;0.62;0.00;0.00;0.62;3.17;2.00;;;20.80;20.60;;;;;;2260907;61;20449;-68
2023/03/02 09:54:25;0.00;0.00;0.62;0.00;0.00;0.62;2.67;2.40;;;20.80;20.10;;;;;;2264545;61;20932;-66
2023/03/02 09:57:21;0.00;0.00;0.62;0.00;0.00;0.62;2.20;1.80;;;20.80;20.10;;;;;;2264164;61;20423;-66
2023/03/02 10:00:12;0.00;0.00;0.62;0.00;0.00;0.62;3.17;2.23;;;20.80;20.10;;;;;;2261292;61;20379;-66
2023/03/02 10:03:00;0.00;0.00;0.62;0.00;0.00;0.62;3.33;2.23;;;20.80;20.10;;;;;;2264749;61;20849;-68
2023/03/02 10:05:48;0.00;0.00;0.62;0.00;0.00;0.62;3.23;2.60;;;20.80;20.10;;;;;;2264984;61;20363;-66
2023/03/02 10:08:36;0.00;0.00;0.62;0.00;0.00;0.62;4.10;2.63;;;20.80;20.10;;;;;;2264788;61;20359;-66
2023/03/02 10:11:34;0.00;0.00;0.62;0.00;0.00;0.62;4.10;3.00;;;20.80;20.10;;;;;;2264179;61;20364;-68
2023/03/02 10:14:25;0.00;0.00;0.62;0.00;0.00;0.62;5.70;4.00;;;20.80;20.10;;;;;;2264715;61;20427;-66
2023/03/02 10:17:32;0.00;0.00;0.62;0.00;0.00;0.62;6.97;5.17;;;20.90;20.20;;;;;;2264662;61;20419;-68
2023/03/02 10:20:23;0.00;0.00;0.62;0.00;0.00;0.62;4.60;4.10;;;20.80;20.10;;;;;;2263512;61;20840;-66
2023/03/02 10:23:29;0.00;0.00;0.62;0.00;0.00;0.62;5.67;4.87;;;20.80;20.10;;;;;;2263781;61;20376;-63
2023/03/02 10:26:25;0.00;0.00;0.62;0.00;0.00;0.62;10.93;4.90;;;20.80;20.10;;;;;;2263543;61;20771;-64
2023/03/02 10:29:44;0.00;0.00;0.62;0.00;0.00;0.62;5.80;4.47;;;20.80;20.20;;;;;;2263195;61;20364;-64
2023/03/02 10:32:34;0.00;0.00;0.62;0.00;0.00;0.62;6.13;4.30;;;20.80;20.20;;;;;;2263957;61;20448;-66
2023/03/02 10:35:23;0.00;0.00;0.62;0.00;0.00;0.62;6.73;4.60;;;20.80;20.20;;;;;;2264173;61;20892;-65
2023/03/02 10:38:13;0.00;0.00;0.62;0.00;0.00;0.62;5.23;4.70;;;20.80;20.30;;;;;;2264005;61;20427;-68
2023/03/02 10:41:01;0.00;0.00;0.62;0.00;0.00;0.62;5.87;4.70;;;20.80;20.30;;;;;;2263130;61;20352;-70
2023/03/02 10:43:50;0.00;0.00;0.62;0.00;0.00;0.62;4.30;3.90;;;20.90;20.40;;;;;;2263648;61;20426;-64
2023/03/02 10:46:40;0.00;0.00;0.62;0.00;0.00;0.62;4.20;3.70;;;20.80;20.30;;;;;;2264934;61;20368;-67
2023/03/02 10:49:28;0.00;0.00;0.62;0.00;0.00;0.62;5.23;4.73;;;20.90;20.50;;;;;;2263600;61;20387;-64
2023/03/02 10:52:16;0.00;0.00;0.62;0.00;0.00;0.62;5.67;4.73;;;20.90;20.50;;;;;;2264715;61;20360;-68
2023/03/02 10:55:03;0.00;0.00;0.62;0.00;0.00;0.62;6.40;4.60;;;20.90;20.50;;;;;;2264173;61;20426;-67
2023/03/02 10:58:00;0.00;0.00;0.62;0.00;0.00;0.62;5.23;4.60;;;20.90;20.50;;;;;;2264850;61;20398;-68
2023/03/02 11:00:56;0.00;0.00;0.62;0.00;0.00;0.62;7.60;4.90;;;20.90;20.60;;;;;;2264678;61;20344;-67